New Orleans, Louisiana
Traffic Map
Current Weather Conditions
New Orleans, Louisiana
Clear
Clear
54°
Feels Like: 54°
Wind Chill: 54° Ceiling: Unl
Heat Index: 54° Visibility: 10mi
Dew Point: 45° Wind: 6mph
Humidity: 72% Direction: 130° (SE)
Pressure: 30.22in Gusts: 0mph
Raw Report DataKNEW 180353Z AUTO 13005KT 10SM CLR 12/07 A3022 RMK AO2 SLP225 T01220072
Traffic Incident Summary
Active as of:
Severity:
Category:
InformationThere was an issue retrieving the traffic information for this location. Please try a different location or try again shortly.
Advertisements